Dover Air Force Base
KDOV : rendu visible

Aérodrome :











RETROUVEZ-NOUS SUR...

 
LOGIN :

S'inscrire | Disclaimer

   EN    FR    IT 

 









Légende :    VFR   VFR Marginal   IFR   IFR Intensif   IFR Très Intensif
Visi : 
Plafond : 
>= 8 km
>= 3000ft
5 à 8 km
1000 à 3000 ft
1500m à 5 km
500 à 1000 ft
800 à 1500m
200 à 500 ft
< 800m
< 200 ft
Symboles :   Orages  Brouillard  Fortes neiges  Fortes précipitations  Vent > 20 kt






- Altitude de l'aérodrome : 24 ft


KDOV - Dover Air Force Base

DERNIER METAR :
  • 180756Z AUTO 01003KT 10SM SCT160 M05/M10 A3064 RMK AO2 SLP379 T10471103 $

METARs EXPIRÉS :
  • 180656Z AUTO 02005KT 10SM CLR M05/M11 A3066 RMK AO2 SLP386 T10511109 $

TAF TAF KDOV
Valide du 18 à 08h jusqu'au 19 à 14h UTC


180800Z 1808/1914 02006KT 9999 SCT150 QNH3055INS
BECMG 1814/1815 19012KT 6000 -SN BKN040 QNH3044INS
BECMG 1815/1816 19020G25KT 9999 NSW SCT040 QNH3030INS
BECMG 1820/1821 18015G20KT 4800 -RA BKN018 QNH3007INS
BECMG 1903/1904 21020G30KT 9999 NSW BKN015 QNH2980INS
BECMG 1905/1906 22020G30KT 9000 BR BKN008 QNH2970INS
BECMG 1911/1912 28015G25KT 9999 NSW FEW008 QNH2971INS TX08/1905Z TNM02/1808Z



MET'MAP, la Météo Aéronautique d'un coup d'oeil ! - Copyright ORBIFLY Décembre 2007 - Disclaimer

ORBIFLY MET'MAP TEAM :

Programmation & Développement : Alexandra Zaïnal
Sur une idée originale de : Baudouin d'Aumeries
Assistance à la programmation : Marc-Olivier Méhu
Soutien technique & logistique : Manuel Goepfert

Contact : metmap@orbifly.com




SOURCES & CREDITS :

   NOAA       Earth
Advisory